Philipsburg, Montana
Current Conditions -  °F | °C
As of 11:53 PM on Friday 19 Dec 2014 (Local Time) from KBTM Reporting Station
Overcast Overcast  
Wind Chill: 20°   Ceiling: 8000
Heat Index: 27°   Visibility: 10mi
Dew Point: 23°   Wind: 6mph
Humidity: 85%   Direction: 360°N
Pressure: 29.97"   Gusts: NA
Location:  46.33°N, 113.29°W
Report Text: KBTM 200653Z AUTO 36005KT 10SM FEW060 OVC080 M03/M05 A2997 RMK AO2 SLP180 T10281050 400221106
Loading
Personal Weather Stations






























Interactive Weather Map New forecast layout! Learn more

10-Day Weather Forecast

Advertisements
Track Severe Weather on mobile